createdAt,value
2022-10-05T00:00:50.834Z,4.80
2022-10-05T00:03:58.912Z,5.00
2022-10-05T00:07:17.285Z,5.20
2022-10-05T00:10:20.363Z,5.10
2022-10-05T00:13:25.782Z,5.00
2022-10-05T00:16:29.423Z,5.00
2022-10-05T00:19:36.999Z,5.10
2022-10-05T00:22:38.833Z,5.00
2022-10-05T00:28:42.872Z,4.80
2022-10-05T00:34:47.404Z,4.60
2022-10-05T00:37:53.646Z,4.70
2022-10-05T00:44:34.383Z,4.60
2022-10-05T00:47:45.405Z,4.60
2022-10-05T00:51:11.862Z,4.50
2022-10-05T00:54:44.241Z,4.80
2022-10-05T00:57:59.329Z,4.80
2022-10-05T01:01:04.254Z,4.60
2022-10-05T01:07:52.491Z,4.60
2022-10-05T01:11:02.494Z,4.60
2022-10-05T01:17:18.844Z,4.30
2022-10-05T01:20:20.730Z,4.50
2022-10-05T01:23:37.624Z,4.50
2022-10-05T01:27:16.807Z,4.80
2022-10-05T01:30:21.580Z,4.80
2022-10-05T01:33:40.425Z,4.90
2022-10-05T01:36:58.683Z,4.90
2022-10-05T01:40:34.585Z,4.50
2022-10-05T01:43:46.723Z,4.50
2022-10-05T01:47:06.701Z,4.50
2022-10-05T01:50:33.099Z,4.40
2022-10-05T01:53:57.213Z,4.40
2022-10-05T01:57:44.945Z,4.50
2022-10-05T02:04:21.197Z,4.40
2022-10-05T02:07:42.224Z,4.40
2022-10-05T02:10:53.433Z,4.40
2022-10-05T02:16:59.109Z,4.20
2022-10-05T02:20:05.800Z,4.10
2022-10-05T02:23:13.183Z,4.10
2022-10-05T02:29:22.347Z,4.00
2022-10-05T02:32:27.168Z,4.20
2022-10-05T02:35:29.113Z,4.20
2022-10-05T02:38:44.043Z,4.30
2022-10-05T02:42:00.292Z,4.20
2022-10-05T02:51:29.724Z,4.00
2022-10-05T02:54:37.384Z,4.00
2022-10-05T02:58:08.574Z,3.90
2022-10-05T03:07:33.437Z,3.80
2022-10-05T03:10:57.755Z,3.80
2022-10-05T03:14:18.011Z,3.90
2022-10-05T03:17:22.504Z,3.80
2022-10-05T03:20:53.486Z,3.80
2022-10-05T03:24:19.555Z,3.80
2022-10-05T03:27:33.421Z,4.00
2022-10-05T03:31:01.943Z,3.90
2022-10-05T03:34:27.065Z,3.80
2022-10-05T03:38:00.486Z,3.70
2022-10-05T03:41:12.823Z,3.70
2022-10-05T03:44:34.648Z,3.70
2022-10-05T03:47:50.573Z,3.60
2022-10-05T03:50:59.890Z,3.90
2022-10-05T03:54:28.951Z,4.00
2022-10-05T03:57:35.695Z,4.00
2022-10-05T04:00:40.008Z,3.90
2022-10-05T04:03:47.356Z,3.90
2022-10-05T04:06:52.201Z,3.90
2022-10-05T04:09:55.930Z,3.90
2022-10-05T04:13:30.631Z,3.90
2022-10-05T04:16:38.726Z,3.90
2022-10-05T04:20:02.427Z,3.90
2022-10-05T04:26:34.791Z,4.00
2022-10-05T04:29:46.788Z,3.90
2022-10-05T04:32:59.312Z,3.80
2022-10-05T04:36:17.853Z,3.80
2022-10-05T04:39:31.022Z,3.90
2022-10-05T04:42:58.787Z,3.90
2022-10-05T04:46:34.770Z,3.90
2022-10-05T04:49:55.038Z,3.90
2022-10-05T04:53:00.968Z,3.90
2022-10-05T04:56:28.883Z,4.00
2022-10-05T05:03:01.211Z,4.00
2022-10-05T05:10:03.015Z,3.80
2022-10-05T05:13:29.252Z,4.00
2022-10-05T05:16:38.962Z,4.10
2022-10-05T05:20:07.975Z,4.30
2022-10-05T05:23:35.254Z,4.30
2022-10-05T05:26:39.808Z,4.30
2022-10-05T05:32:58.498Z,4.40
2022-10-05T05:36:40.148Z,4.40
2022-10-05T05:39:46.029Z,4.60
2022-10-05T05:43:06.393Z,4.60
2022-10-05T05:47:02.172Z,4.80
2022-10-05T05:50:09.425Z,4.90
2022-10-05T05:53:25.313Z,5.20
2022-10-05T05:56:37.364Z,5.20
2022-10-05T06:00:10.184Z,5.50
2022-10-05T06:03:24.701Z,5.70
2022-10-05T06:06:34.294Z,6.40
2022-10-05T06:09:48.037Z,6.70
2022-10-05T06:12:52.405Z,6.70
2022-10-05T06:16:01.729Z,7.00
2022-10-05T06:19:11.293Z,7.20
2022-10-05T06:22:24.694Z,7.70
2022-10-05T06:25:44.444Z,7.70
2022-10-05T06:28:55.148Z,7.70
2022-10-05T06:32:13.490Z,7.80
2022-10-05T06:35:22.139Z,8.00
2022-10-05T06:38:33.051Z,8.00
2022-10-05T06:41:56.439Z,7.80
2022-10-05T06:45:15.170Z,8.00
2022-10-05T06:48:49.270Z,8.80
2022-10-05T06:55:00.510Z,8.90
2022-10-05T06:58:25.283Z,9.20
2022-10-05T07:01:51.162Z,9.30
2022-10-05T07:05:04.333Z,9.30
2022-10-05T07:08:24.193Z,9.50
2022-10-05T07:14:49.543Z,10.20
2022-10-05T07:21:06.244Z,10.30
2022-10-05T07:27:34.706Z,10.30
2022-10-05T07:31:00.110Z,10.20
2022-10-05T07:34:25.454Z,11.00
2022-10-05T07:37:31.430Z,11.00
2022-10-05T07:40:40.659Z,11.30
2022-10-05T07:44:11.683Z,11.90
2022-10-05T07:47:22.955Z,13.00
2022-10-05T07:50:27.922Z,13.00
2022-10-05T07:53:53.249Z,13.10
2022-10-05T07:57:12.431Z,13.20
2022-10-05T08:00:23.092Z,13.20
2022-10-05T08:03:44.614Z,13.50
2022-10-05T08:07:11.218Z,14.50
2022-10-05T08:10:21.975Z,14.50
2022-10-05T08:13:54.661Z,14.70
2022-10-05T08:16:59.799Z,14.40
2022-10-05T08:20:39.230Z,14.60
2022-10-05T08:23:55.917Z,14.60
2022-10-05T08:27:11.725Z,14.50
2022-10-05T08:30:16.147Z,14.50
2022-10-05T08:33:19.679Z,14.60
2022-10-05T08:37:00.049Z,14.80
2022-10-05T08:40:47.883Z,14.80
2022-10-05T08:44:31.096Z,15.50
2022-10-05T08:47:32.830Z,15.60
2022-10-05T08:51:04.698Z,15.70
2022-10-05T08:54:16.728Z,16.10
2022-10-05T09:00:54.874Z,18.80
2022-10-05T09:04:42.458Z,18.60
2022-10-05T09:08:05.107Z,18.20
2022-10-05T09:11:20.949Z,18.10
2022-10-05T09:15:01.467Z,18.80
2022-10-05T09:21:41.224Z,19.00
2022-10-05T09:24:56.457Z,19.50
2022-10-05T09:28:31.734Z,18.40
2022-10-05T09:32:01.013Z,18.20
2022-10-05T09:35:27.091Z,18.50
2022-10-05T09:39:26.109Z,18.60
2022-10-05T09:42:55.072Z,18.30
2022-10-05T09:46:11.908Z,18.80
2022-10-05T09:49:45.469Z,19.40
2022-10-05T09:52:56.380Z,19.30
2022-10-05T09:59:12.803Z,20.10
2022-10-05T10:03:05.521Z,19.90
2022-10-05T10:06:07.432Z,19.50
2022-10-05T10:09:16.301Z,18.70
2022-10-05T10:12:35.279Z,19.10
2022-10-05T10:15:48.825Z,19.60
2022-10-05T10:19:18.324Z,19.70
2022-10-05T10:22:49.512Z,19.50
2022-10-05T10:26:05.567Z,19.80
2022-10-05T10:29:13.491Z,20.20
2022-10-05T10:32:54.188Z,19.70
2022-10-05T10:36:09.935Z,21.00
2022-10-05T10:39:41.818Z,19.00
2022-10-05T10:42:49.479Z,19.40
2022-10-05T10:45:57.399Z,19.70
2022-10-05T10:49:25.393Z,19.70
2022-10-05T10:52:58.919Z,19.40
2022-10-05T11:02:39.584Z,19.70
2022-10-05T11:06:19.092Z,19.90
2022-10-05T11:09:35.743Z,19.70
2022-10-05T11:13:22.921Z,19.10
2022-10-05T11:16:41.680Z,19.40
2022-10-05T11:23:26.608Z,19.40
2022-10-05T11:26:37.368Z,19.70
2022-10-05T11:29:51.193Z,20.40
2022-10-05T11:33:30.021Z,21.00
2022-10-05T11:37:05.317Z,21.00
2022-10-05T11:40:40.945Z,21.00
2022-10-05T11:44:06.139Z,21.60
2022-10-05T11:47:13.108Z,21.30
2022-10-05T11:50:35.291Z,21.40
2022-10-05T11:53:48.563Z,21.40
2022-10-05T11:57:08.204Z,20.60
2022-10-05T12:00:19.094Z,20.70
2022-10-05T12:03:54.941Z,20.60
2022-10-05T12:07:14.662Z,20.60
2022-10-05T12:19:44.175Z,22.10
2022-10-05T12:26:02.004Z,21.20
2022-10-05T12:32:30.627Z,20.50
2022-10-05T12:35:49.230Z,20.70
2022-10-05T12:39:02.711Z,20.50
2022-10-05T12:45:41.217Z,20.20
2022-10-05T12:49:14.948Z,20.50
2022-10-05T12:52:38.131Z,20.60
2022-10-05T13:02:00.734Z,20.40
2022-10-05T13:08:35.486Z,20.50
2022-10-05T13:11:49.964Z,20.00
2022-10-05T13:15:16.146Z,19.50
2022-10-05T13:18:39.409Z,19.60
2022-10-05T13:21:47.111Z,19.80
2022-10-05T13:31:18.789Z,20.50
2022-10-05T13:34:45.040Z,20.50
2022-10-05T13:38:09.982Z,20.40
2022-10-05T13:41:20.755Z,20.60
2022-10-05T13:44:50.501Z,20.50
2022-10-05T13:48:11.013Z,20.50
2022-10-05T13:51:25.664Z,20.20
2022-10-05T13:54:47.632Z,20.40
2022-10-05T14:01:05.031Z,20.40
2022-10-05T14:04:27.348Z,21.10
2022-10-05T14:08:10.209Z,20.80
2022-10-05T14:14:24.596Z,20.90
2022-10-05T14:17:44.022Z,21.10
2022-10-05T14:21:14.398Z,20.90
2022-10-05T14:24:45.682Z,20.80
2022-10-05T14:28:25.916Z,20.80
2022-10-05T14:31:31.475Z,20.40
2022-10-05T14:34:42.826Z,19.90
2022-10-05T14:37:49.477Z,19.80
2022-10-05T14:41:11.879Z,19.60
2022-10-05T14:47:24.170Z,19.50
2022-10-05T14:50:28.763Z,19.50
2022-10-05T14:54:01.238Z,19.20
2022-10-05T14:57:31.031Z,19.20
2022-10-05T15:00:48.711Z,19.20
2022-10-05T15:04:35.399Z,19.10
2022-10-05T15:07:44.296Z,18.90
2022-10-05T15:11:16.596Z,18.60
2022-10-05T15:14:26.388Z,18.60
2022-10-05T15:17:41.903Z,18.40
2022-10-05T15:21:13.860Z,18.20
2022-10-05T15:24:20.002Z,17.90
2022-10-05T15:27:41.127Z,17.90
2022-10-05T15:31:04.464Z,17.50
2022-10-05T15:34:24.563Z,17.50
2022-10-05T15:37:46.110Z,17.20
2022-10-05T15:41:09.280Z,17.10
2022-10-05T15:47:28.271Z,16.50
2022-10-05T15:51:22.633Z,16.50
2022-10-05T16:00:51.665Z,15.90
2022-10-05T16:07:00.033Z,15.30
2022-10-05T16:13:34.563Z,14.80
2022-10-05T16:16:59.314Z,14.60
2022-10-05T16:20:24.179Z,14.50
2022-10-05T16:23:44.850Z,14.40
2022-10-05T16:27:00.520Z,14.30
2022-10-05T16:30:06.633Z,14.10
2022-10-05T16:33:23.732Z,14.10
2022-10-05T16:49:50.194Z,13.60
2022-10-05T16:53:03.247Z,13.40
2022-10-05T16:56:10.696Z,13.20
2022-10-05T16:59:40.270Z,13.20
2022-10-05T17:02:52.768Z,13.10
2022-10-05T17:09:27.990Z,13.00
2022-10-05T17:13:13.346Z,13.00
2022-10-05T17:19:25.983Z,12.80
2022-10-05T17:23:01.737Z,12.80
2022-10-05T17:29:44.989Z,12.50
2022-10-05T17:32:55.819Z,12.50
2022-10-05T17:36:00.393Z,12.30
2022-10-05T17:39:12.117Z,12.30
2022-10-05T17:51:51.326Z,12.10
2022-10-05T17:55:02.260Z,12.10
2022-10-05T17:58:27.698Z,12.10
2022-10-05T18:01:40.510Z,12.00
2022-10-05T18:05:04.780Z,9.10
2022-10-05T18:08:12.920Z,11.90
2022-10-05T18:11:36.618Z,11.90
2022-10-05T18:15:02.118Z,11.80
2022-10-05T18:18:29.566Z,11.70
2022-10-05T18:21:33.302Z,11.60
2022-10-05T18:27:57.546Z,11.60
2022-10-05T18:31:13.472Z,11.60
2022-10-05T18:34:38.129Z,11.50
2022-10-05T18:38:06.692Z,11.60
2022-10-05T18:41:40.011Z,11.50
2022-10-05T18:45:07.760Z,11.40
2022-10-05T18:51:33.644Z,11.40
2022-10-05T18:54:39.064Z,11.20
2022-10-05T19:01:00.244Z,11.40
2022-10-05T19:04:25.674Z,11.20
2022-10-05T19:07:36.807Z,11.20
2022-10-05T19:10:46.646Z,11.20
2022-10-05T19:14:20.815Z,11.10
2022-10-05T19:17:31.358Z,11.00
2022-10-05T19:27:11.341Z,10.80
2022-10-05T19:30:18.383Z,10.90
2022-10-05T19:36:40.710Z,10.90
2022-10-05T19:39:52.487Z,10.80
2022-10-05T19:46:20.362Z,10.70
2022-10-05T19:49:42.847Z,10.70
2022-10-05T19:52:49.801Z,10.60
2022-10-05T19:55:52.606Z,10.60
2022-10-05T19:58:54.976Z,10.60
2022-10-05T20:01:58.701Z,10.50
2022-10-05T20:05:07.361Z,10.50
2022-10-05T20:08:16.126Z,10.50
2022-10-05T20:11:22.678Z,10.60
2022-10-05T20:14:32.988Z,10.60
2022-10-05T20:17:34.864Z,10.60
2022-10-05T20:23:44.127Z,10.60
2022-10-05T20:26:59.426Z,10.70
2022-10-05T20:33:03.577Z,10.80
2022-10-05T20:36:05.643Z,10.90
2022-10-05T20:42:10.551Z,11.00
2022-10-05T20:45:13.270Z,11.10
2022-10-05T20:48:15.143Z,11.10
2022-10-05T20:51:16.999Z,11.30
2022-10-05T20:57:21.212Z,11.50
2022-10-05T21:00:23.141Z,11.40
2022-10-05T21:03:25.009Z,11.50
2022-10-05T21:06:26.917Z,11.50
2022-10-05T21:09:29.859Z,11.50
2022-10-05T21:12:31.726Z,11.40
2022-10-05T21:15:33.545Z,11.40
2022-10-05T21:18:35.382Z,11.50
2022-10-05T21:21:37.691Z,11.50
2022-10-05T21:24:40.918Z,11.60
2022-10-05T21:30:45.104Z,11.40
2022-10-05T21:36:49.257Z,11.30
2022-10-05T21:39:51.115Z,11.30
2022-10-05T21:45:55.824Z,11.00
2022-10-05T21:48:57.737Z,11.00
2022-10-05T21:52:01.263Z,10.80
2022-10-05T21:55:04.844Z,10.70
2022-10-05T21:58:06.885Z,10.50
2022-10-05T22:04:11.066Z,10.20
2022-10-05T22:07:17.703Z,10.00
2022-10-05T22:13:24.143Z,9.90
2022-10-05T22:19:28.405Z,9.80
2022-10-05T22:25:32.799Z,9.60
2022-10-05T22:28:35.594Z,9.60
2022-10-05T22:31:38.419Z,9.50
2022-10-05T22:34:40.299Z,9.50
2022-10-05T22:37:42.237Z,9.40
2022-10-05T22:40:44.079Z,9.40
2022-10-05T22:43:47.713Z,9.40
2022-10-05T22:46:49.714Z,9.30
2022-10-05T22:49:51.583Z,9.30
2022-10-05T22:52:53.498Z,9.30
2022-10-05T22:55:55.381Z,9.40
2022-10-05T22:58:57.222Z,9.40
2022-10-05T23:01:59.231Z,9.30
2022-10-05T23:05:01.147Z,9.30
2022-10-05T23:08:03.419Z,9.10
2022-10-05T23:11:05.343Z,9.00
2022-10-05T23:14:07.413Z,9.20
2022-10-05T23:17:09.489Z,9.10
2022-10-05T23:20:11.388Z,9.10
2022-10-05T23:23:13.232Z,8.90
2022-10-05T23:26:15.985Z,9.10
2022-10-05T23:29:17.890Z,9.10
2022-10-05T23:32:19.732Z,9.00
2022-10-05T23:35:21.599Z,8.90
2022-10-05T23:38:23.559Z,9.00
2022-10-05T23:41:25.509Z,9.20
2022-10-05T23:44:27.404Z,9.30
2022-10-05T23:47:29.267Z,9.90
2022-10-05T23:50:31.101Z,9.90
2022-10-05T23:53:33.262Z,9.50
2022-10-05T23:56:35.125Z,9.60
2022-10-05T23:59:36.992Z,9.60
